MHK weather

Manhattan Regional Airport
Manhattan, Kansas, United States

Public forecast

Using degrees Fahrenheit for public forecast. Weather courtesy of forecast.io.

METAR (pilot weather report)

Retrieved 2019/08/19 11:52 UTC (1 hour ago):

KMHK 191152Z 06006KT 10SM SCT055 22/20 A2997 RMK AO2 SLP139 T02170200 10239 20217 53008

TAF (pilot weather forecast)

Retrieved 2019/08/19 12:22 UTC (36 minutes ago):

TAF KMHK 191120Z 1912/2012 07005KT P6SM SCT050 FM191600 14011KT P6SM SKC